Meaux La Montagne (69) - C

Date : 24/03/2013
Distance : 4,500 km

Place Nom Licence Catégorie Club Temps min/km CN à J-60 Points Différence Nouveau CN
1 PERRIN Mathieu 8976 H16 4201RA 0:37:19 8'17 5391 6225 +834 5768
2 LE PENNEC Jean 20744 H16 2605RA 0:40:12 8'56 5525 5778 +253 5638
3 ROUX Fleury 25237 H16 4201RA 0:41:06 9'08 5279 5652 +373 5478
4 MOREAU Noé 17929 H16 2605RA 0:43:06 9'34 5503 5389 -114 5503
5 MAYORAZ Loïc 25037 H16 7407RA 0:45:57 10'12 4609 5055 +446 4652
6 BORNARD Julie 9402 D18 7305RA 0:51:40 11'28 4688 4496 -192 4771
7 BERRARD Tom 19761 H16 2607RA 0:51:47 11'30 4342 4486 +144 4410
8 PICHARD Adrien 16456 H16 6911RA 0:52:38 11'41 3740 4413 +673 3874
9 MASLIAH Raphaël 26389 H16 2610RA 0:52:39 11'42 4577 4412 -165 4544
10 BONNAVEIRA Fabien 23282 H16 6911RA 0:54:55 12'12 5025 4230 -795 4944
11 BASSET Fiona 23384 D18 6911RA 0:55:47 12'23 4531 4164 -367 4617
12 FERRAND Antonin 23465 H16 4203RA 0:56:05 12'27 3739 4142 +403 3814
13 RIVOLLIER Isaline 22451 D18 4201RA 0:56:08 12'28 4148 4138 -10 4242
14 DENIER Anne-Françoise 23851 D40 7109BO 0:58:24 12'58 4194 3977 -217 4161
15 RADISSON Bruno 18078 H50 6913RA 0:59:19 13'10 3848 3916 +68 3905
16 MONTEMONT Patrice 9460 H50 3810RA 1:00:26 13'25 5242 3844 -1398 5242
17 GUIDI Claude 8505 D40 6906RA 1:01:18 13'37 4635 3789 -846 4635
18 TRONCHON Valery 20798 H40 6906RA 1:02:35 13'54 4025 3712 -313 4025
19 ROUX JACKY 25235 H50 4201RA 1:02:40 13'55 4220 3707 -513 4220
20 DECROIX Veronique 2819 D40 7407RA 1:03:37 14'08 4200 3651 -549 4200
21 ARIAGNO Veronique 10320 D45 6906RA 1:04:41 14'22 0 3591 3519
22 FERREOL Christian 22742 H50 4206RA 1:05:08 14'28 2505 3566 +1061 2807
23 GINTZBURGER Colas 25057 H16 7407RA 1:05:24 14'32 3085 3552 +467 3243
24 FERRAND Eric 24661 H50 4203RA 1:05:28 14'32 3849 3548 -301 3830
25 MOTHE Pierre 17711 H50 4201RA 1:05:55 14'38 0 3524 0
26 FIGUIERE Valérie 274 D45 7109BO 1:06:59 14'53 4203 3468 -735 4223
27 BONORA Beatrice 243 D45 6906RA 1:07:01 14'53 4302 3466 -836 4302
28 SCHMITT Denys 3323 H55 3809RA 1:08:34 15'14 4914 3388 -1526 4914
29 VORWERK Caroline 25745 D40 4201RA 1:09:48 15'30 3263 3328 +65 3388
30 BONORA Marine 11542 D18 6906RA 1:10:45 15'43 3659 3283 -376 3659
31 VALCHERA Claire 8648 D45 3810RA 1:11:16 15'50 4250 3259 -991 4250
32 FALGA Beatrice 12403 D18 6911RA 1:12:20 16'04 3678 3211 -467 3874
33 MINOT Bernard 11837 H55 6906RA 1:12:45 16'10 3863 3193 -670 3863
34 HENROT Thierry 6741 H50 4206RA 1:13:00 16'13 3374 3182 -192 3282
35 COLES Alison 17705 D45 3801RA 1:14:24 16'32 3672 3122 -550 3613
36 WOEHRLE RADISSON Anne 18079 D45 6913RA 1:14:46 16'36 3396 3107 -289 3403
37 GRANSART Renaud 1752 H50 5402LO 1:15:28 16'46 3455 3078 -377 3402
38 MAISONNEUVE Valentine 16357 D18 4203RA 1:15:42 16'49 4959 3068 -1891 4856
39 CHOMETTE Aurore 19532 D21 4201RA 1:16:58 17'06 4584 3018 -1566 4584
40 POCACHARD Jérôme 24842 H40 6911RA 1:17:10 17'08 2467 3010 +543 2641
41 GONET Janick 21046 D40 2607RA 1:17:36 17'14 4065 2993 -1072 4037
42 BERRARD Marianne 18130 D45 2607RA 1:17:54 17'18 3836 2982 -854 3836
43 JEHL Elodie 25617 D35 6911RA 1:23:22 18'31 2786 0
44 DENTON Genevieve 15 D45 4204RA 1:26:02 19'07 3234 2700 -534 3234
45 VERDIN Serge 11382 H50 7109BO 1:26:36 19'14 3980 2682 -1298 4005
46 BERNARD Myriam 25667 D45 6911RA 1:26:36 19'14 0 2682 2575
47 DUCRET Romain 12884 H16 6906RA 1:30:05 20'01 2877 2579 -298 2943
48 CHAREYRE Régis 25321 H16 2607RA 1:30:24 20'05 2320 2569 +249 2444
49 BASSET Laurence 23575 D40 6911RA 1:30:36 20'08 3676 2564 -1112 3676
50 GINTZBURGER Véronique 25055 D40 7407RA 1:32:55 20'38 3100 2500 -600 2999
51 TIRAVY Laurence 23221 D40 6906RA 1:36:34 21'27 2445 2405 -40 2466
52 INDEAUX Catherine 10394 D40 6913RA 1:51:44 24'49 2561 2079 -482 2561
53 AUPERT Stephanie 26656 D40 4201RA 3:01:24 40'18 0 1280 0
BODY Mathilde 10184 D18 7305RA pm None 5190 0 5173
BORNARD Nicolas 9403 H16 7305RA pm None 4546 0 4775
RAYMOND Emmanuelle 17139 D45 4206RA pm None 0 0
BRISEPIERRE Richard 3526 H55 6913RA pm None 4831 0 4831